sensor_id;sensor_type;location;lat;lon;timestamp;P1;durP1;ratioP1;P2;durP2;ratioP2
74939;SDS011;63505;45.226;37.908;2023-03-01T00:02:06;17.38;;;8.63;;
74939;SDS011;63505;45.226;37.908;2023-03-01T00:04:32;21.35;;;10.13;;
74939;SDS011;63505;45.226;37.908;2023-03-01T00:06:58;19.48;;;8.82;;
74939;SDS011;63505;45.226;37.908;2023-03-01T00:09:24;16.17;;;8.80;;
74939;SDS011;63505;45.226;37.908;2023-03-01T00:11:49;23.38;;;10.00;;
74939;SDS011;63505;45.226;37.908;2023-03-01T00:14:15;23.00;;;8.60;;
74939;SDS011;63505;45.226;37.908;2023-03-01T00:16:43;23.75;;;10.18;;
74939;SDS011;63505;45.226;37.908;2023-03-01T00:19:11;22.73;;;9.50;;
74939;SDS011;63505;45.226;37.908;2023-03-01T00:21:39;22.65;;;10.32;;
74939;SDS011;63505;45.226;37.908;2023-03-01T00:24:05;21.45;;;9.88;;
74939;SDS011;63505;45.226;37.908;2023-03-01T00:26:31;25.02;;;10.02;;
74939;SDS011;63505;45.226;37.908;2023-03-01T00:28:58;16.27;;;8.75;;
74939;SDS011;63505;45.226;37.908;2023-03-01T00:31:26;20.83;;;10.27;;
74939;SDS011;63505;45.226;37.908;2023-03-01T00:33:56;23.50;;;10.43;;
74939;SDS011;63505;45.226;37.908;2023-03-01T00:36:24;24.02;;;9.98;;
74939;SDS011;63505;45.226;37.908;2023-03-01T00:38:51;22.63;;;10.60;;
74939;SDS011;63505;45.226;37.908;2023-03-01T00:41:18;21.85;;;9.88;;
74939;SDS011;63505;45.226;37.908;2023-03-01T00:43:45;24.60;;;11.30;;
74939;SDS011;63505;45.226;37.908;2023-03-01T00:46:13;23.30;;;10.88;;
74939;SDS011;63505;45.226;37.908;2023-03-01T00:48:41;22.05;;;9.23;;
74939;SDS011;63505;45.226;37.908;2023-03-01T00:51:08;20.08;;;10.43;;
74939;SDS011;63505;45.226;37.908;2023-03-01T00:53:36;24.77;;;10.35;;
74939;SDS011;63505;45.226;37.908;2023-03-01T00:56:03;26.65;;;11.05;;
74939;SDS011;63505;45.226;37.908;2023-03-01T00:58:30;26.05;;;11.80;;
74939;SDS011;63505;45.226;37.908;2023-03-01T01:00:56;21.20;;;11.18;;
74939;SDS011;63505;45.226;37.908;2023-03-01T01:03:22;30.25;;;12.25;;
74939;SDS011;63505;45.226;37.908;2023-03-01T01:05:50;23.67;;;10.90;;
74939;SDS011;63505;45.226;37.908;2023-03-01T01:08:17;23.67;;;10.98;;
74939;SDS011;63505;45.226;37.908;2023-03-01T01:10:45;26.23;;;10.88;;
74939;SDS011;63505;45.226;37.908;2023-03-01T01:13:12;23.02;;;10.10;;
74939;SDS011;63505;45.226;37.908;2023-03-01T01:15:39;23.30;;;10.32;;
74939;SDS011;63505;45.226;37.908;2023-03-01T01:18:06;29.70;;;13.02;;
74939;SDS011;63505;45.226;37.908;2023-03-01T01:20:32;26.10;;;11.85;;
74939;SDS011;63505;45.226;37.908;2023-03-01T01:23:00;26.00;;;11.60;;
74939;SDS011;63505;45.226;37.908;2023-03-01T01:25:26;30.88;;;12.80;;
74939;SDS011;63505;45.226;37.908;2023-03-01T01:27:51;24.13;;;10.55;;
74939;SDS011;63505;45.226;37.908;2023-03-01T01:30:18;26.45;;;11.32;;
74939;SDS011;63505;45.226;37.908;2023-03-01T01:32:44;26.35;;;11.45;;
74939;SDS011;63505;45.226;37.908;2023-03-01T01:35:10;31.60;;;11.25;;
74939;SDS011;63505;45.226;37.908;2023-03-01T01:37:35;25.40;;;9.65;;
74939;SDS011;63505;45.226;37.908;2023-03-01T01:40:01;24.83;;;10.60;;
74939;SDS011;63505;45.226;37.908;2023-03-01T01:42:31;23.33;;;10.23;;
74939;SDS011;63505;45.226;37.908;2023-03-01T01:47:49;29.90;;;12.38;;
74939;SDS011;63505;45.226;37.908;2023-03-01T01:50:16;23.10;;;10.07;;
74939;SDS011;63505;45.226;37.908;2023-03-01T01:52:43;23.90;;;10.63;;
74939;SDS011;63505;45.226;37.908;2023-03-01T01:55:14;21.17;;;9.77;;
74939;SDS011;63505;45.226;37.908;2023-03-01T02:00:21;18.48;;;9.77;;
74939;SDS011;63505;45.226;37.908;2023-03-01T02:02:50;24.45;;;9.57;;
74939;SDS011;63505;45.226;37.908;2023-03-01T02:08:10;22.05;;;9.90;;
74939;SDS011;63505;45.226;37.908;2023-03-01T02:10:38;21.73;;;10.15;;
74939;SDS011;63505;45.226;37.908;2023-03-01T02:13:05;20.17;;;9.27;;
74939;SDS011;63505;45.226;37.908;2023-03-01T02:15:36;20.52;;;8.55;;
74939;SDS011;63505;45.226;37.908;2023-03-01T02:18:03;23.75;;;10.43;;
74939;SDS011;63505;45.226;37.908;2023-03-01T02:20:52;19.63;;;9.32;;
74939;SDS011;63505;45.226;37.908;2023-03-01T02:23:22;24.67;;;9.82;;
74939;SDS011;63505;45.226;37.908;2023-03-01T02:28:49;14.25;;;6.70;;
74939;SDS011;63505;45.226;37.908;2023-03-01T02:31:17;23.83;;;8.63;;
74939;SDS011;63505;45.226;37.908;2023-03-01T02:34:05;19.00;;;8.98;;
74939;SDS011;63505;45.226;37.908;2023-03-01T02:36:36;22.42;;;9.30;;
74939;SDS011;63505;45.226;37.908;2023-03-01T02:39:05;20.30;;;8.45;;
74939;SDS011;63505;45.226;37.908;2023-03-01T02:41:36;19.23;;;7.93;;
74939;SDS011;63505;45.226;37.908;2023-03-01T02:44:04;18.27;;;8.27;;
74939;SDS011;63505;45.226;37.908;2023-03-01T02:46:31;20.55;;;8.90;;
74939;SDS011;63505;45.226;37.908;2023-03-01T02:48:57;19.65;;;9.57;;
74939;SDS011;63505;45.226;37.908;2023-03-01T02:56:43;18.42;;;7.10;;
74939;SDS011;63505;45.226;37.908;2023-03-01T02:59:16;24.52;;;8.95;;
74939;SDS011;63505;45.226;37.908;2023-03-01T03:01:45;24.42;;;8.80;;
74939;SDS011;63505;45.226;37.908;2023-03-01T03:04:13;8.48;;;4.63;;
74939;SDS011;63505;45.226;37.908;2023-03-01T03:06:49;6.82;;;3.58;;
74939;SDS011;63505;45.226;37.908;2023-03-01T03:09:16;13.45;;;7.15;;
74939;SDS011;63505;45.226;37.908;2023-03-01T03:11:43;19.00;;;7.78;;
74939;SDS011;63505;45.226;37.908;2023-03-01T03:14:10;20.95;;;9.77;;
74939;SDS011;63505;45.226;37.908;2023-03-01T03:16:42;22.83;;;9.90;;
74939;SDS011;63505;45.226;37.908;2023-03-01T03:19:09;13.63;;;7.10;;
74939;SDS011;63505;45.226;37.908;2023-03-01T03:21:36;8.02;;;4.47;;
74939;SDS011;63505;45.226;37.908;2023-03-01T03:24:02;17.98;;;8.40;;
74939;SDS011;63505;45.226;37.908;2023-03-01T03:26:28;23.10;;;9.20;;
74939;SDS011;63505;45.226;37.908;2023-03-01T03:28:55;8.57;;;4.80;;
74939;SDS011;63505;45.226;37.908;2023-03-01T03:31:22;14.65;;;7.63;;
74939;SDS011;63505;45.226;37.908;2023-03-01T03:33:48;27.40;;;11.63;;
74939;SDS011;63505;45.226;37.908;2023-03-01T03:36:17;15.85;;;8.23;;
74939;SDS011;63505;45.226;37.908;2023-03-01T03:38:46;33.17;;;13.00;;
74939;SDS011;63505;45.226;37.908;2023-03-01T03:41:12;26.20;;;10.80;;
74939;SDS011;63505;45.226;37.908;2023-03-01T03:43:39;21.35;;;9.30;;
74939;SDS011;63505;45.226;37.908;2023-03-01T03:48:34;22.30;;;7.22;;
74939;SDS011;63505;45.226;37.908;2023-03-01T03:51:02;27.73;;;12.45;;
74939;SDS011;63505;45.226;37.908;2023-03-01T03:53:30;26.27;;;9.23;;
74939;SDS011;63505;45.226;37.908;2023-03-01T03:55:57;18.90;;;9.32;;
74939;SDS011;63505;45.226;37.908;2023-03-01T03:58:24;16.00;;;8.10;;
74939;SDS011;63505;45.226;37.908;2023-03-01T04:00:52;27.00;;;13.95;;
74939;SDS011;63505;45.226;37.908;2023-03-01T04:03:21;22.05;;;11.52;;
74939;SDS011;63505;45.226;37.908;2023-03-01T04:05:49;29.92;;;13.85;;
74939;SDS011;63505;45.226;37.908;2023-03-01T04:08:21;32.22;;;15.80;;
74939;SDS011;63505;45.226;37.908;2023-03-01T04:10:49;22.67;;;10.25;;
74939;SDS011;63505;45.226;37.908;2023-03-01T04:13:17;17.67;;;10.02;;
74939;SDS011;63505;45.226;37.908;2023-03-01T04:15:49;8.23;;;6.30;;
74939;SDS011;63505;45.226;37.908;2023-03-01T04:18:16;25.20;;;11.35;;
74939;SDS011;63505;45.226;37.908;2023-03-01T04:20:43;8.85;;;3.63;;
74939;SDS011;63505;45.226;37.908;2023-03-01T04:23:11;18.00;;;10.63;;
74939;SDS011;63505;45.226;37.908;2023-03-01T04:25:53;16.02;;;6.97;;
74939;SDS011;63505;45.226;37.908;2023-03-01T04:30:53;11.65;;;5.70;;
74939;SDS011;63505;45.226;37.908;2023-03-01T04:33:20;13.55;;;6.30;;
74939;SDS011;63505;45.226;37.908;2023-03-01T04:35:47;15.82;;;6.95;;
74939;SDS011;63505;45.226;37.908;2023-03-01T04:38:15;14.43;;;7.03;;
74939;SDS011;63505;45.226;37.908;2023-03-01T04:40:42;19.40;;;8.38;;
74939;SDS011;63505;45.226;37.908;2023-03-01T04:43:09;13.70;;;6.80;;
74939;SDS011;63505;45.226;37.908;2023-03-01T04:45:36;17.00;;;6.82;;
74939;SDS011;63505;45.226;37.908;2023-03-01T04:48:02;15.35;;;7.30;;
74939;SDS011;63505;45.226;37.908;2023-03-01T04:50:28;18.08;;;6.45;;
74939;SDS011;63505;45.226;37.908;2023-03-01T04:52:55;14.68;;;7.07;;
74939;SDS011;63505;45.226;37.908;2023-03-01T04:55:27;17.38;;;7.55;;
74939;SDS011;63505;45.226;37.908;2023-03-01T04:57:53;22.73;;;8.60;;
74939;SDS011;63505;45.226;37.908;2023-03-01T05:00:20;13.40;;;5.65;;
74939;SDS011;63505;45.226;37.908;2023-03-01T05:05:27;9.48;;;4.78;;
74939;SDS011;63505;45.226;37.908;2023-03-01T05:08:02;18.23;;;8.82;;
74939;SDS011;63505;45.226;37.908;2023-03-01T05:10:30;17.25;;;8.43;;
74939;SDS011;63505;45.226;37.908;2023-03-01T05:12:58;12.32;;;6.47;;
74939;SDS011;63505;45.226;37.908;2023-03-01T05:15:25;15.93;;;9.25;;
74939;SDS011;63505;45.226;37.908;2023-03-01T05:17:53;11.35;;;6.43;;
74939;SDS011;63505;45.226;37.908;2023-03-01T05:20:23;20.42;;;6.57;;
74939;SDS011;63505;45.226;37.908;2023-03-01T05:22:51;16.60;;;6.70;;
74939;SDS011;63505;45.226;37.908;2023-03-01T05:25:20;19.38;;;8.90;;
74939;SDS011;63505;45.226;37.908;2023-03-01T05:27:46;17.42;;;7.68;;
74939;SDS011;63505;45.226;37.908;2023-03-01T05:30:13;16.80;;;6.68;;
74939;SDS011;63505;45.226;37.908;2023-03-01T05:32:47;11.25;;;4.68;;
74939;SDS011;63505;45.226;37.908;2023-03-01T05:35:15;14.43;;;5.53;;
74939;SDS011;63505;45.226;37.908;2023-03-01T05:37:43;16.25;;;6.75;;
74939;SDS011;63505;45.226;37.908;2023-03-01T05:40:12;13.27;;;6.10;;
74939;SDS011;63505;45.226;37.908;2023-03-01T05:42:43;14.95;;;7.50;;
74939;SDS011;63505;45.226;37.908;2023-03-01T05:45:10;12.40;;;6.32;;
74939;SDS011;63505;45.226;37.908;2023-03-01T05:47:38;15.07;;;6.55;;
74939;SDS011;63505;45.226;37.908;2023-03-01T05:50:12;9.57;;;4.13;;
74939;SDS011;63505;45.226;37.908;2023-03-01T05:52:50;12.70;;;5.95;;
74939;SDS011;63505;45.226;37.908;2023-03-01T05:55:18;10.32;;;5.45;;
74939;SDS011;63505;45.226;37.908;2023-03-01T05:57:46;9.13;;;5.18;;
74939;SDS011;63505;45.226;37.908;2023-03-01T06:00:15;9.85;;;5.72;;
74939;SDS011;63505;45.226;37.908;2023-03-01T06:02:42;13.68;;;7.22;;
74939;SDS011;63505;45.226;37.908;2023-03-01T06:05:08;15.48;;;6.22;;
74939;SDS011;63505;45.226;37.908;2023-03-01T06:07:35;11.30;;;4.22;;
74939;SDS011;63505;45.226;37.908;2023-03-01T06:10:02;9.73;;;4.57;;
74939;SDS011;63505;45.226;37.908;2023-03-01T06:12:35;10.45;;;5.25;;
74939;SDS011;63505;45.226;37.908;2023-03-01T06:15:02;11.80;;;6.13;;
74939;SDS011;63505;45.226;37.908;2023-03-01T06:17:30;13.27;;;7.32;;
74939;SDS011;63505;45.226;37.908;2023-03-01T06:20:10;14.07;;;6.13;;
74939;SDS011;63505;45.226;37.908;2023-03-01T06:22:39;14.13;;;6.15;;
74939;SDS011;63505;45.226;37.908;2023-03-01T06:25:06;9.55;;;5.32;;
74939;SDS011;63505;45.226;37.908;2023-03-01T06:27:33;13.63;;;6.30;;
74939;SDS011;63505;45.226;37.908;2023-03-01T06:29:59;8.70;;;5.07;;
74939;SDS011;63505;45.226;37.908;2023-03-01T06:32:24;15.50;;;6.35;;
74939;SDS011;63505;45.226;37.908;2023-03-01T06:34:50;11.23;;;5.45;;
74939;SDS011;63505;45.226;37.908;2023-03-01T06:37:16;11.63;;;6.05;;
74939;SDS011;63505;45.226;37.908;2023-03-01T06:39:42;9.10;;;4.18;;
74939;SDS011;63505;45.226;37.908;2023-03-01T06:42:08;10.38;;;4.00;;
74939;SDS011;63505;45.226;37.908;2023-03-01T06:44:37;10.93;;;5.53;;
74939;SDS011;63505;45.226;37.908;2023-03-01T06:47:03;6.70;;;3.78;;
74939;SDS011;63505;45.226;37.908;2023-03-01T06:49:29;7.97;;;3.85;;
74939;SDS011;63505;45.226;37.908;2023-03-01T06:51:55;5.40;;;2.58;;
74939;SDS011;63505;45.226;37.908;2023-03-01T06:54:22;16.15;;;7.05;;
74939;SDS011;63505;45.226;37.908;2023-03-01T06:56:48;15.30;;;4.78;;
74939;SDS011;63505;45.226;37.908;2023-03-01T06:59:15;14.20;;;5.85;;
74939;SDS011;63505;45.226;37.908;2023-03-01T07:01:42;7.82;;;3.22;;
74939;SDS011;63505;45.226;37.908;2023-03-01T07:04:09;6.65;;;3.35;;
74939;SDS011;63505;45.226;37.908;2023-03-01T07:06:36;6.90;;;3.78;;
74939;SDS011;63505;45.226;37.908;2023-03-01T07:09:02;8.65;;;5.05;;
74939;SDS011;63505;45.226;37.908;2023-03-01T07:11:28;8.35;;;4.72;;
74939;SDS011;63505;45.226;37.908;2023-03-01T07:13:53;7.97;;;4.05;;
74939;SDS011;63505;45.226;37.908;2023-03-01T07:16:20;6.43;;;4.20;;
74939;SDS011;63505;45.226;37.908;2023-03-01T07:18:46;13.52;;;6.55;;
74939;SDS011;63505;45.226;37.908;2023-03-01T07:21:13;8.50;;;3.88;;
74939;SDS011;63505;45.226;37.908;2023-03-01T07:23:40;9.20;;;3.83;;
74939;SDS011;63505;45.226;37.908;2023-03-01T07:26:06;8.60;;;4.65;;
74939;SDS011;63505;45.226;37.908;2023-03-01T07:28:32;10.48;;;5.63;;
74939;SDS011;63505;45.226;37.908;2023-03-01T07:31:03;11.05;;;5.13;;
74939;SDS011;63505;45.226;37.908;2023-03-01T07:33:30;8.20;;;4.00;;
74939;SDS011;63505;45.226;37.908;2023-03-01T07:35:59;9.10;;;4.50;;
74939;SDS011;63505;45.226;37.908;2023-03-01T07:38:27;10.30;;;4.93;;
74939;SDS011;63505;45.226;37.908;2023-03-01T07:40:57;12.02;;;5.60;;
74939;SDS011;63505;45.226;37.908;2023-03-01T07:43:27;13.05;;;6.80;;
74939;SDS011;63505;45.226;37.908;2023-03-01T07:45:54;4.93;;;2.67;;
74939;SDS011;63505;45.226;37.908;2023-03-01T07:48:19;11.88;;;6.03;;
74939;SDS011;63505;45.226;37.908;2023-03-01T07:50:45;9.48;;;4.68;;
74939;SDS011;63505;45.226;37.908;2023-03-01T07:53:11;8.38;;;4.18;;
74939;SDS011;63505;45.226;37.908;2023-03-01T07:55:37;13.68;;;5.22;;
74939;SDS011;63505;45.226;37.908;2023-03-01T07:58:03;12.32;;;5.68;;
74939;SDS011;63505;45.226;37.908;2023-03-01T08:00:29;11.05;;;5.03;;
74939;SDS011;63505;45.226;37.908;2023-03-01T08:02:58;13.82;;;5.90;;
74939;SDS011;63505;45.226;37.908;2023-03-01T08:05:27;10.35;;;5.90;;
74939;SDS011;63505;45.226;37.908;2023-03-01T08:07:53;12.45;;;5.50;;
74939;SDS011;63505;45.226;37.908;2023-03-01T08:10:19;10.48;;;5.43;;
74939;SDS011;63505;45.226;37.908;2023-03-01T08:12:45;9.15;;;5.55;;
74939;SDS011;63505;45.226;37.908;2023-03-01T08:15:11;9.70;;;4.65;;
74939;SDS011;63505;45.226;37.908;2023-03-01T08:17:37;10.00;;;5.28;;
74939;SDS011;63505;45.226;37.908;2023-03-01T08:20:04;11.70;;;6.25;;
74939;SDS011;63505;45.226;37.908;2023-03-01T08:22:32;8.20;;;4.43;;
74939;SDS011;63505;45.226;37.908;2023-03-01T08:24:57;11.65;;;5.78;;
74939;SDS011;63505;45.226;37.908;2023-03-01T08:27:23;11.05;;;5.07;;
74939;SDS011;63505;45.226;37.908;2023-03-01T08:29:49;10.10;;;4.78;;
74939;SDS011;63505;45.226;37.908;2023-03-01T08:32:15;12.93;;;5.18;;
74939;SDS011;63505;45.226;37.908;2023-03-01T08:34:41;14.48;;;6.40;;
74939;SDS011;63505;45.226;37.908;2023-03-01T08:37:07;14.82;;;6.70;;
74939;SDS011;63505;45.226;37.908;2023-03-01T08:39:34;13.20;;;6.15;;
74939;SDS011;63505;45.226;37.908;2023-03-01T08:41:59;12.65;;;4.85;;
74939;SDS011;63505;45.226;37.908;2023-03-01T08:44:25;17.02;;;8.05;;
74939;SDS011;63505;45.226;37.908;2023-03-01T08:46:51;16.10;;;7.05;;
74939;SDS011;63505;45.226;37.908;2023-03-01T08:49:19;20.33;;;8.52;;
74939;SDS011;63505;45.226;37.908;2023-03-01T08:51:46;17.17;;;6.53;;
74939;SDS011;63505;45.226;37.908;2023-03-01T08:54:14;23.50;;;9.55;;
74939;SDS011;63505;45.226;37.908;2023-03-01T08:56:42;14.73;;;7.15;;
74939;SDS011;63505;45.226;37.908;2023-03-01T08:59:08;21.17;;;9.73;;
74939;SDS011;63505;45.226;37.908;2023-03-01T09:01:35;16.05;;;7.45;;
74939;SDS011;63505;45.226;37.908;2023-03-01T09:04:02;18.40;;;6.95;;
74939;SDS011;63505;45.226;37.908;2023-03-01T09:06:32;16.88;;;7.82;;
74939;SDS011;63505;45.226;37.908;2023-03-01T09:08:59;11.48;;;5.50;;
74939;SDS011;63505;45.226;37.908;2023-03-01T09:11:25;24.45;;;9.70;;
74939;SDS011;63505;45.226;37.908;2023-03-01T09:13:52;21.90;;;9.40;;
74939;SDS011;63505;45.226;37.908;2023-03-01T09:16:20;18.77;;;7.43;;
74939;SDS011;63505;45.226;37.908;2023-03-01T09:18:51;19.30;;;9.20;;
74939;SDS011;63505;45.226;37.908;2023-03-01T09:21:20;25.33;;;9.98;;
74939;SDS011;63505;45.226;37.908;2023-03-01T09:23:48;20.50;;;8.30;;
74939;SDS011;63505;45.226;37.908;2023-03-01T09:26:18;27.23;;;9.48;;
74939;SDS011;63505;45.226;37.908;2023-03-01T09:28:47;24.00;;;9.75;;
74939;SDS011;63505;45.226;37.908;2023-03-01T09:31:14;20.85;;;9.13;;
74939;SDS011;63505;45.226;37.908;2023-03-01T09:33:42;28.48;;;10.70;;
74939;SDS011;63505;45.226;37.908;2023-03-01T09:36:17;20.33;;;9.88;;
74939;SDS011;63505;45.226;37.908;2023-03-01T09:38:44;20.02;;;8.65;;
74939;SDS011;63505;45.226;37.908;2023-03-01T09:43:53;17.90;;;8.30;;
74939;SDS011;63505;45.226;37.908;2023-03-01T09:46:40;15.25;;;7.60;;
74939;SDS011;63505;45.226;37.908;2023-03-01T09:49:15;16.88;;;7.18;;
74939;SDS011;63505;45.226;37.908;2023-03-01T09:51:47;16.20;;;9.45;;
74939;SDS011;63505;45.226;37.908;2023-03-01T09:54:28;26.52;;;10.07;;
74939;SDS011;63505;45.226;37.908;2023-03-01T09:59:23;18.95;;;8.48;;
74939;SDS011;63505;45.226;37.908;2023-03-01T10:05:05;9.98;;;5.25;;
74939;SDS011;63505;45.226;37.908;2023-03-01T10:08:10;19.45;;;9.30;;
74939;SDS011;63505;45.226;37.908;2023-03-01T10:11:02;22.63;;;9.60;;
74939;SDS011;63505;45.226;37.908;2023-03-01T10:13:45;19.83;;;8.77;;
74939;SDS011;63505;45.226;37.908;2023-03-01T10:16:21;18.95;;;9.00;;
74939;SDS011;63505;45.226;37.908;2023-03-01T10:18:55;19.20;;;8.77;;
74939;SDS011;63505;45.226;37.908;2023-03-01T10:21:26;21.27;;;11.10;;
74939;SDS011;63505;45.226;37.908;2023-03-01T10:26:40;18.67;;;8.65;;
74939;SDS011;63505;45.226;37.908;2023-03-01T10:29:13;13.77;;;6.82;;
74939;SDS011;63505;45.226;37.908;2023-03-01T10:31:43;21.63;;;9.73;;
74939;SDS011;63505;45.226;37.908;2023-03-01T10:36:43;13.88;;;7.55;;
74939;SDS011;63505;45.226;37.908;2023-03-01T10:39:14;20.90;;;9.80;;
74939;SDS011;63505;45.226;37.908;2023-03-01T10:47:03;18.42;;;7.85;;
74939;SDS011;63505;45.226;37.908;2023-03-01T10:49:29;16.83;;;7.95;;
74939;SDS011;63505;45.226;37.908;2023-03-01T10:51:55;22.45;;;8.15;;
74939;SDS011;63505;45.226;37.908;2023-03-01T10:54:28;15.05;;;7.60;;
74939;SDS011;63505;45.226;37.908;2023-03-01T10:56:56;16.38;;;8.55;;
74939;SDS011;63505;45.226;37.908;2023-03-01T10:59:31;9.93;;;5.40;;
74939;SDS011;63505;45.226;37.908;2023-03-01T11:07:48;17.30;;;7.57;;
74939;SDS011;63505;45.226;37.908;2023-03-01T11:10:17;13.20;;;7.85;;
74939;SDS011;63505;45.226;37.908;2023-03-01T11:12:44;13.95;;;6.80;;
74939;SDS011;63505;45.226;37.908;2023-03-01T11:15:24;14.27;;;7.90;;
74939;SDS011;63505;45.226;37.908;2023-03-01T11:17:53;13.68;;;7.10;;
74939;SDS011;63505;45.226;37.908;2023-03-01T11:20:24;14.25;;;7.72;;
74939;SDS011;63505;45.226;37.908;2023-03-01T11:23:19;16.48;;;7.05;;
74939;SDS011;63505;45.226;37.908;2023-03-01T11:25:51;13.73;;;6.05;;
74939;SDS011;63505;45.226;37.908;2023-03-01T11:28:24;15.13;;;7.70;;
74939;SDS011;63505;45.226;37.908;2023-03-01T11:31:02;12.23;;;5.35;;
74939;SDS011;63505;45.226;37.908;2023-03-01T11:36:32;11.82;;;6.57;;
74939;SDS011;63505;45.226;37.908;2023-03-01T11:39:12;12.90;;;5.72;;
74939;SDS011;63505;45.226;37.908;2023-03-01T11:41:41;12.15;;;6.20;;
74939;SDS011;63505;45.226;37.908;2023-03-01T11:44:15;14.25;;;4.82;;
74939;SDS011;63505;45.226;37.908;2023-03-01T11:47:15;11.13;;;5.30;;
74939;SDS011;63505;45.226;37.908;2023-03-01T11:50:04;9.23;;;5.50;;
74939;SDS011;63505;45.226;37.908;2023-03-01T11:55:30;14.75;;;6.65;;
74939;SDS011;63505;45.226;37.908;2023-03-01T12:10:23;19.08;;;8.63;;
74939;SDS011;63505;45.226;37.908;2023-03-01T12:15:58;16.90;;;10.07;;
74939;SDS011;63505;45.226;37.908;2023-03-01T12:26:13;15.65;;;10.45;;
74939;SDS011;63505;45.226;37.908;2023-03-01T12:28:55;8.23;;;5.65;;
74939;SDS011;63505;45.226;37.908;2023-03-01T12:37:12;11.40;;;6.30;;
74939;SDS011;63505;45.226;37.908;2023-03-01T12:42:41;9.77;;;4.95;;
74939;SDS011;63505;45.226;37.908;2023-03-01T12:50:43;9.88;;;6.25;;
74939;SDS011;63505;45.226;37.908;2023-03-01T12:55:44;8.27;;;4.72;;
74939;SDS011;63505;45.226;37.908;2023-03-01T13:09:04;11.13;;;4.05;;
74939;SDS011;63505;45.226;37.908;2023-03-01T13:11:53;3.95;;;2.63;;
74939;SDS011;63505;45.226;37.908;2023-03-01T13:19:24;5.07;;;3.42;;
74939;SDS011;63505;45.226;37.908;2023-03-01T13:21:53;5.75;;;2.85;;
74939;SDS011;63505;45.226;37.908;2023-03-01T13:24:23;7.53;;;4.60;;
74939;SDS011;63505;45.226;37.908;2023-03-01T13:34:55;10.98;;;5.40;;
74939;SDS011;63505;45.226;37.908;2023-03-01T13:37:24;6.75;;;4.20;;
74939;SDS011;63505;45.226;37.908;2023-03-01T13:39:59;8.20;;;4.13;;
74939;SDS011;63505;45.226;37.908;2023-03-01T13:45:35;9.70;;;6.13;;
74939;SDS011;63505;45.226;37.908;2023-03-01T13:48:25;14.45;;;10.30;;
74939;SDS011;63505;45.226;37.908;2023-03-01T13:50:53;10.50;;;6.68;;
74939;SDS011;63505;45.226;37.908;2023-03-01T13:53:24;11.73;;;7.05;;
74939;SDS011;63505;45.226;37.908;2023-03-01T13:58:28;12.57;;;7.53;;
74939;SDS011;63505;45.226;37.908;2023-03-01T14:03:39;9.73;;;5.53;;
74939;SDS011;63505;45.226;37.908;2023-03-01T14:06:08;9.73;;;5.05;;
74939;SDS011;63505;45.226;37.908;2023-03-01T14:08:37;12.30;;;6.25;;
74939;SDS011;63505;45.226;37.908;2023-03-01T14:11:24;11.57;;;5.53;;
74939;SDS011;63505;45.226;37.908;2023-03-01T14:17:04;8.30;;;4.65;;
74939;SDS011;63505;45.226;37.908;2023-03-01T14:19:40;10.68;;;5.95;;
74939;SDS011;63505;45.226;37.908;2023-03-01T14:22:22;13.02;;;6.57;;
74939;SDS011;63505;45.226;37.908;2023-03-01T14:24:50;7.88;;;4.88;;
74939;SDS011;63505;45.226;37.908;2023-03-01T14:29:43;6.18;;;3.17;;
74939;SDS011;63505;45.226;37.908;2023-03-01T14:32:20;7.68;;;2.97;;
74939;SDS011;63505;45.226;37.908;2023-03-01T14:34:48;6.50;;;3.97;;
74939;SDS011;63505;45.226;37.908;2023-03-01T14:37:34;6.65;;;3.78;;
74939;SDS011;63505;45.226;37.908;2023-03-01T14:40:00;7.18;;;3.63;;
74939;SDS011;63505;45.226;37.908;2023-03-01T14:44:57;4.90;;;3.95;;
74939;SDS011;63505;45.226;37.908;2023-03-01T14:47:30;6.60;;;3.35;;
74939;SDS011;63505;45.226;37.908;2023-03-01T14:50:09;9.35;;;5.70;;
74939;SDS011;63505;45.226;37.908;2023-03-01T14:52:50;10.07;;;4.03;;
74939;SDS011;63505;45.226;37.908;2023-03-01T14:55:20;7.40;;;4.05;;
74939;SDS011;63505;45.226;37.908;2023-03-01T14:57:51;8.02;;;3.95;;
74939;SDS011;63505;45.226;37.908;2023-03-01T15:00:19;8.18;;;3.65;;
74939;SDS011;63505;45.226;37.908;2023-03-01T15:02:51;9.40;;;4.22;;
74939;SDS011;63505;45.226;37.908;2023-03-01T15:05:39;9.27;;;3.75;;
74939;SDS011;63505;45.226;37.908;2023-03-01T15:08:05;8.85;;;3.67;;
74939;SDS011;63505;45.226;37.908;2023-03-01T15:10:35;6.30;;;4.28;;
74939;SDS011;63505;45.226;37.908;2023-03-01T15:15:43;16.92;;;6.18;;
74939;SDS011;63505;45.226;37.908;2023-03-01T15:18:19;10.32;;;4.40;;
74939;SDS011;63505;45.226;37.908;2023-03-01T15:20:47;12.73;;;5.85;;
74939;SDS011;63505;45.226;37.908;2023-03-01T15:23:21;11.52;;;4.60;;
74939;SDS011;63505;45.226;37.908;2023-03-01T15:25:50;10.52;;;5.43;;
74939;SDS011;63505;45.226;37.908;2023-03-01T15:28:25;9.98;;;5.10;;
74939;SDS011;63505;45.226;37.908;2023-03-01T15:31:41;9.80;;;5.53;;
74939;SDS011;63505;45.226;37.908;2023-03-01T15:33:46;9.90;;;3.53;;
74939;SDS011;63505;45.226;37.908;2023-03-01T15:41:54;7.85;;;4.70;;
74939;SDS011;63505;45.226;37.908;2023-03-01T15:44:30;9.35;;;4.80;;
74939;SDS011;63505;45.226;37.908;2023-03-01T15:46:57;11.25;;;4.97;;
74939;SDS011;63505;45.226;37.908;2023-03-01T15:49:39;10.50;;;5.13;;
74939;SDS011;63505;45.226;37.908;2023-03-01T15:52:13;13.98;;;7.32;;
74939;SDS011;63505;45.226;37.908;2023-03-01T15:54:46;22.67;;;11.77;;
74939;SDS011;63505;45.226;37.908;2023-03-01T15:57:12;33.33;;;14.27;;
74939;SDS011;63505;45.226;37.908;2023-03-01T15:59:40;95.20;;;42.05;;
74939;SDS011;63505;45.226;37.908;2023-03-01T16:02:08;26.55;;;13.35;;
74939;SDS011;63505;45.226;37.908;2023-03-01T16:04:37;100.90;;;48.00;;
74939;SDS011;63505;45.226;37.908;2023-03-01T16:07:03;185.10;;;82.43;;
74939;SDS011;63505;45.226;37.908;2023-03-01T16:09:29;28.85;;;14.52;;
74939;SDS011;63505;45.226;37.908;2023-03-01T16:11:55;30.90;;;16.98;;
74939;SDS011;63505;45.226;37.908;2023-03-01T16:14:21;219.25;;;90.57;;
74939;SDS011;63505;45.226;37.908;2023-03-01T16:16:47;154.55;;;64.05;;
74939;SDS011;63505;45.226;37.908;2023-03-01T16:19:14;180.05;;;70.00;;
74939;SDS011;63505;45.226;37.908;2023-03-01T16:21:41;56.20;;;27.98;;
74939;SDS011;63505;45.226;37.908;2023-03-01T16:24:09;17.10;;;9.98;;
74939;SDS011;63505;45.226;37.908;2023-03-01T16:26:35;7.40;;;4.78;;
74939;SDS011;63505;45.226;37.908;2023-03-01T16:29:03;22.77;;;8.93;;
74939;SDS011;63505;45.226;37.908;2023-03-01T16:31:29;15.98;;;8.32;;
74939;SDS011;63505;45.226;37.908;2023-03-01T16:33:56;18.63;;;9.13;;
74939;SDS011;63505;45.226;37.908;2023-03-01T16:36:24;18.05;;;8.43;;
74939;SDS011;63505;45.226;37.908;2023-03-01T16:38:51;8.10;;;4.28;;
74939;SDS011;63505;45.226;37.908;2023-03-01T16:41:18;17.38;;;9.95;;
74939;SDS011;63505;45.226;37.908;2023-03-01T16:43:46;20.75;;;8.70;;
74939;SDS011;63505;45.226;37.908;2023-03-01T16:46:13;19.55;;;10.75;;
74939;SDS011;63505;45.226;37.908;2023-03-01T16:48:44;5.30;;;3.28;;
74939;SDS011;63505;45.226;37.908;2023-03-01T16:51:11;20.52;;;7.10;;
74939;SDS011;63505;45.226;37.908;2023-03-01T16:53:38;14.10;;;6.60;;
74939;SDS011;63505;45.226;37.908;2023-03-01T16:56:06;10.45;;;4.53;;
74939;SDS011;63505;45.226;37.908;2023-03-01T16:58:34;12.95;;;8.85;;